To NAV CANADA Home Page Login to a new session Search on AWWS site Feedback and Comments Disclaimer Vers la page française équivalente Tips FAQ What's new on the site To the Forecasts and Observations / NOTAM section To "File a Flight Plan" website Publications and other links Update of the User's profile FIC Telephone Numbers My Weather Data Folder Route Weather Data Regional Weather Data Local Weather Data To the Forecasts and Observations / NOTAM section
Request Generated 08/29/2015 at 06:02:57 UTC . Weather information available at that time is displayed.

METAR/TAF

REGINA/REGINA INTL/SK    

METAR CYQR 290600Z 15008KT 6SM FU SCT300 15/12 A2985 RMK CI3 SLP111
DENSITY ALT 2300FT=
METAR CYQR 290500Z 16006KT 6SM FU SCT300 16/12 A2986 RMK CI3 SLP114
DENSITY ALT 2500FT=
METAR CYQR 290400Z 16005KT 6SM FU SCT300 17/13 A2985 RMK CI4 SLP112
DENSITY ALT 2500FT=

TAF CYQR 290538Z 2906/3006 16006KT 6SM FU SCT200 TEMPO 2906/2909 4SM
FU
FM290900 16005KT P6SM BKN150 TEMPO 2909/2918 4SM FU
BECMG 2915/2917 26008KT
FM291800 26010KT P6SM SCT160 SCT240
BECMG 2922/2924 15010KT
RMK NXT FCST BY 291200Z=
Your time UTC time
Weather data provided by Environment Canada and NAV CANADA